createdAt,value
2023-01-06T00:01:33.993Z,98852.63
2023-01-06T00:04:40.214Z,98849.59
2023-01-06T00:07:45.729Z,98853.73
2023-01-06T00:10:50.806Z,98855.50
2023-01-06T00:13:56.579Z,98850.95
2023-01-06T00:17:02.348Z,98854.77
2023-01-06T00:20:08.840Z,98860.41
2023-01-06T00:23:14.977Z,98857.49
2023-01-06T00:26:22.245Z,98861.05
2023-01-06T00:29:29.325Z,98846.41
2023-01-06T00:32:35.187Z,98855.44
2023-01-06T00:35:40.818Z,98855.09
2023-01-06T00:38:46.988Z,98853.56
2023-01-06T00:42:11.858Z,98859.84
2023-01-06T00:45:18.155Z,98864.65
2023-01-06T00:48:25.249Z,98867.11
2023-01-06T00:51:31.062Z,98861.72
2023-01-06T00:54:36.949Z,98867.94
2023-01-06T00:57:42.175Z,98860.34
2023-01-06T01:00:47.327Z,98863.72
2023-01-06T01:03:54.586Z,98867.95
2023-01-06T01:07:01.499Z,98865.81
2023-01-06T01:10:06.512Z,98863.72
2023-01-06T01:13:12.064Z,98865.95
2023-01-06T01:16:24.745Z,98864.11
2023-01-06T01:19:30.057Z,98862.11
2023-01-06T01:22:35.947Z,98865.35
2023-01-06T01:25:41.913Z,98866.31
2023-01-06T01:28:48.388Z,98859.52
2023-01-06T01:31:53.877Z,98858.16
2023-01-06T01:35:00.436Z,98855.75
2023-01-06T01:38:05.863Z,98851.59
2023-01-06T01:41:11.465Z,98862.05
2023-01-06T01:44:20.236Z,98867.25
2023-01-06T01:47:25.965Z,98859.05
2023-01-06T01:50:43.898Z,98859.89
2023-01-06T01:53:57.880Z,98861.45
2023-01-06T01:57:07.243Z,98858.61
2023-01-06T02:00:12.875Z,98859.63
2023-01-06T02:03:19.310Z,98863.75
2023-01-06T02:06:28.422Z,98869.69
2023-01-06T02:09:54.821Z,98867.28
2023-01-06T02:13:05.846Z,98863.92
2023-01-06T02:16:23.978Z,98865.86
2023-01-06T02:19:54.422Z,98870.47
2023-01-06T02:23:29.116Z,98872.47
2023-01-06T02:26:54.099Z,98871.97
2023-01-06T02:30:18.223Z,98869.89
2023-01-06T02:33:41.888Z,98876.75
2023-01-06T02:37:10.446Z,98869.81
2023-01-06T02:40:37.160Z,98877.42
2023-01-06T02:43:59.692Z,98876.19
2023-01-06T02:47:35.583Z,98872.03
2023-01-06T02:51:01.359Z,98871.77
2023-01-06T02:54:33.557Z,98869.31
2023-01-06T02:57:52.548Z,98870.84
2023-01-06T03:01:06.352Z,98873.71
2023-01-06T03:04:13.054Z,98867.34
2023-01-06T03:07:19.249Z,98877.03
2023-01-06T03:10:28.232Z,98876.05
2023-01-06T03:14:05.473Z,98872.73
2023-01-06T03:17:12.016Z,98874.34
2023-01-06T03:20:19.229Z,98873.84
2023-01-06T03:23:24.999Z,98882.07
2023-01-06T03:26:31.020Z,98874.31
2023-01-06T03:29:37.080Z,98885.72
2023-01-06T03:32:49.231Z,98877.07
2023-01-06T03:36:31.307Z,98883.64
2023-01-06T03:39:41.545Z,98888.05
2023-01-06T03:43:23.209Z,98891.35
2023-01-06T03:46:46.521Z,98899.20
2023-01-06T03:49:57.740Z,98892.19
2023-01-06T03:53:08.850Z,98897.30
2023-01-06T03:56:27.873Z,98893.88
2023-01-06T03:59:40.559Z,98898.60
2023-01-06T04:02:45.773Z,98893.66
2023-01-06T04:05:54.358Z,98903.20
2023-01-06T04:09:00.163Z,98900.69
2023-01-06T04:12:25.504Z,98903.28
2023-01-06T04:15:36.123Z,98904.44
2023-01-06T04:18:40.069Z,98905.97
2023-01-06T04:21:47.421Z,98911.09
2023-01-06T04:24:52.332Z,98909.09
2023-01-06T04:27:59.127Z,98905.27
2023-01-06T04:31:03.999Z,98906.90
2023-01-06T04:34:09.767Z,98915.41
2023-01-06T04:37:16.445Z,98913.86
2023-01-06T04:40:23.188Z,98911.18
2023-01-06T04:43:28.567Z,98918.31
2023-01-06T04:46:34.997Z,98924.56
2023-01-06T04:49:40.859Z,98923.77
2023-01-06T04:52:46.848Z,98922.41
2023-01-06T04:55:54.543Z,98923.50
2023-01-06T04:59:00.880Z,98923.38
2023-01-06T05:02:06.319Z,98924.98
2023-01-06T05:05:12.430Z,98928.38
2023-01-06T05:08:18.127Z,98935.38
2023-01-06T05:11:29.840Z,98935.86
2023-01-06T05:14:36.003Z,98937.20
2023-01-06T05:17:41.628Z,98941.60
2023-01-06T05:20:46.834Z,98941.92
2023-01-06T05:23:53.329Z,98949.19
2023-01-06T05:26:58.829Z,98948.15
2023-01-06T05:30:04.602Z,98952.29
2023-01-06T05:33:09.779Z,98955.48
2023-01-06T05:36:19.281Z,98964.84
2023-01-06T05:39:24.911Z,98969.94
2023-01-06T05:42:32.265Z,98968.72
2023-01-06T05:45:38.892Z,98979.16
2023-01-06T05:48:45.575Z,98978.25
2023-01-06T05:51:51.972Z,98980.08
2023-01-06T05:54:57.230Z,98982.52
2023-01-06T05:58:03.084Z,98993.18
2023-01-06T06:01:08.642Z,98995.67
2023-01-06T06:04:14.228Z,98996.28
2023-01-06T06:07:19.464Z,99001.55
2023-01-06T06:10:26.293Z,99004.25
2023-01-06T06:13:32.361Z,99007.94
2023-01-06T06:16:39.590Z,99012.78
2023-01-06T06:19:45.037Z,99016.12
2023-01-06T06:22:51.108Z,99019.94
2023-01-06T06:25:57.145Z,99024.17
2023-01-06T06:29:03.382Z,99035.31
2023-01-06T06:32:09.923Z,99039.73
2023-01-06T06:35:16.105Z,99044.14
2023-01-06T06:38:20.907Z,99045.12
2023-01-06T06:41:26.941Z,99045.58
2023-01-06T06:44:31.658Z,99048.54
2023-01-06T06:47:37.102Z,99048.56
2023-01-06T06:50:43.166Z,99056.66
2023-01-06T06:53:50.125Z,99056.41
2023-01-06T06:56:55.980Z,99058.36
2023-01-06T07:00:01.760Z,99061.88
2023-01-06T07:03:07.805Z,99067.50
2023-01-06T07:06:13.873Z,99068.87
2023-01-06T07:09:19.212Z,99072.64
2023-01-06T07:12:24.390Z,99074.26
2023-01-06T07:15:30.083Z,99070.09
2023-01-06T07:18:36.086Z,99080.52
2023-01-06T07:21:41.283Z,99080.72
2023-01-06T07:24:46.626Z,99083.64
2023-01-06T07:27:51.944Z,99087.58
2023-01-06T07:30:58.721Z,99090.92
2023-01-06T07:34:03.914Z,99093.13
2023-01-06T07:37:09.170Z,99095.55
2023-01-06T07:40:14.557Z,99092.62
2023-01-06T07:43:25.727Z,99097.95
2023-01-06T07:46:30.952Z,99097.99
2023-01-06T07:49:37.334Z,99098.64
2023-01-06T07:52:43.545Z,99101.04
2023-01-06T07:55:49.200Z,99105.20
2023-01-06T07:58:54.433Z,99116.63
2023-01-06T08:02:00.378Z,99112.62
2023-01-06T08:05:06.219Z,99119.34
2023-01-06T08:08:11.839Z,99119.44
2023-01-06T08:11:17.585Z,99124.67
2023-01-06T08:14:23.001Z,99130.14
2023-01-06T08:17:29.655Z,99134.28
2023-01-06T08:20:35.842Z,99133.66
2023-01-06T08:23:41.958Z,99137.22
2023-01-06T08:26:46.894Z,99141.14
2023-01-06T08:29:53.420Z,99140.56
2023-01-06T08:33:00.245Z,99151.47
2023-01-06T08:36:14.883Z,99151.99
2023-01-06T08:39:20.783Z,99153.55
2023-01-06T08:42:27.853Z,99149.44
2023-01-06T08:45:32.637Z,99154.52
2023-01-06T08:48:38.603Z,99167.20
2023-01-06T08:51:43.957Z,99163.86
2023-01-06T08:54:51.506Z,99152.74
2023-01-06T08:57:57.714Z,99148.80
2023-01-06T09:01:02.470Z,99154.10
2023-01-06T09:04:07.671Z,99157.70
2023-01-06T09:07:14.366Z,99155.16
2023-01-06T09:10:20.759Z,99164.05
2023-01-06T09:13:26.333Z,99158.17
2023-01-06T09:16:31.934Z,99162.85
2023-01-06T09:19:37.794Z,99162.66
2023-01-06T09:22:43.357Z,99158.43
2023-01-06T09:25:49.138Z,99159.30
2023-01-06T09:28:54.641Z,99166.25
2023-01-06T09:32:01.408Z,99159.12
2023-01-06T09:35:07.228Z,99158.02
2023-01-06T09:38:13.139Z,99162.52
2023-01-06T09:41:56.061Z,99164.77
2023-01-06T09:45:23.507Z,99164.42
2023-01-06T09:48:33.453Z,99183.59
2023-01-06T09:51:39.538Z,99197.70
2023-01-06T09:54:48.174Z,99189.70
2023-01-06T09:58:00.258Z,99202.63
2023-01-06T10:01:10.128Z,99211.65
2023-01-06T10:04:15.719Z,99218.06
2023-01-06T10:07:43.242Z,99219.12
2023-01-06T10:11:05.344Z,99224.37
2023-01-06T10:14:56.665Z,99237.22
2023-01-06T10:18:09.057Z,99248.04
2023-01-06T10:21:22.425Z,99258.41
2023-01-06T10:25:07.355Z,99273.68
2023-01-06T10:28:19.755Z,99277.73
2023-01-06T10:31:29.208Z,99278.94
2023-01-06T10:34:42.368Z,99285.46
2023-01-06T10:37:54.727Z,99301.83
2023-01-06T10:41:01.486Z,99307.59
2023-01-06T10:44:07.068Z,99301.50
2023-01-06T10:47:12.447Z,99307.92
2023-01-06T11:26:17.023Z,99371.94
2023-01-06T11:29:32.375Z,99386.84
2023-01-06T11:32:41.390Z,99386.63
2023-01-06T11:35:48.377Z,99398.65
2023-01-06T11:39:03.202Z,99412.48
2023-01-06T11:42:21.627Z,99421.59
2023-01-06T11:46:01.529Z,99435.17
2023-01-06T11:57:56.086Z,99462.78
2023-01-06T12:01:06.410Z,99460.52
2023-01-06T12:20:11.436Z,99526.14
2023-01-06T12:23:29.241Z,99527.33
2023-01-06T12:29:01.796Z,99544.28
2023-01-06T12:34:54.765Z,99555.05
2023-01-06T12:40:59.860Z,99572.73
2023-01-06T12:44:27.056Z,99567.27
2023-01-06T12:47:43.666Z,99568.67
2023-01-06T12:53:25.654Z,99585.59
2023-01-06T12:56:35.508Z,99592.16
2023-01-06T13:02:54.567Z,99624.19
2023-01-06T13:06:08.147Z,99632.81
2023-01-06T13:09:23.129Z,99625.91
2023-01-06T13:15:33.749Z,99655.39
2023-01-06T13:18:46.363Z,99660.56
2023-01-06T13:21:51.874Z,99669.31
2023-01-06T13:25:12.992Z,99685.80
2023-01-06T13:28:40.132Z,99684.38
2023-01-06T13:32:28.290Z,99692.70
2023-01-06T13:36:00.541Z,99696.41
2023-01-06T13:39:10.328Z,99720.22
2023-01-06T13:44:43.984Z,99733.56
2023-01-06T13:50:15.854Z,99751.23
2023-01-06T13:55:51.134Z,99756.23
2023-01-06T14:03:57.084Z,99774.89
2023-01-06T14:09:32.704Z,99805.31
2023-01-06T14:12:38.790Z,99812.89
2023-01-06T14:20:51.341Z,99830.98
2023-01-06T14:24:13.947Z,99830.80
2023-01-06T14:27:20.489Z,99837.25
2023-01-06T14:30:09.996Z,99840.80
2023-01-06T14:33:19.419Z,99856.80
2023-01-06T14:39:06.740Z,99868.05
2023-01-06T14:42:36.297Z,99878.34
2023-01-06T14:51:19.277Z,99900.67
2023-01-06T14:54:38.210Z,99922.60
2023-01-06T15:05:53.171Z,99930.13
2023-01-06T15:08:42.619Z,99918.67
2023-01-06T15:11:51.904Z,99926.50
2023-01-06T15:17:24.234Z,99948.30
2023-01-06T15:25:36.487Z,99974.54
2023-01-06T15:28:42.252Z,99991.43
2023-01-06T15:31:52.295Z,99993.02
2023-01-06T15:34:58.458Z,99994.37
2023-01-06T15:40:35.873Z,100018.62
2023-01-06T15:46:25.308Z,100045.86
2023-01-06T15:49:44.455Z,100044.83
2023-01-06T15:52:55.811Z,100043.58
2023-01-06T15:56:06.090Z,100065.79
2023-01-06T15:59:11.632Z,100076.66
2023-01-06T16:02:16.689Z,100089.86
2023-01-06T16:07:54.687Z,100100.16
2023-01-06T16:11:00.425Z,100090.72
2023-01-06T16:14:13.502Z,100109.47
2023-01-06T16:20:06.612Z,100120.31
2023-01-06T16:23:10.329Z,100126.73
2023-01-06T16:29:06.279Z,100134.64
2023-01-06T16:37:13.071Z,100175.25
2023-01-06T16:40:18.553Z,100174.23
2023-01-06T16:45:55.674Z,100164.53
2023-01-06T16:49:01.316Z,100162.45
2023-01-06T16:51:36.447Z,100159.05
2023-01-06T16:56:51.025Z,100175.83
2023-01-06T16:59:56.783Z,100175.70
2023-01-06T17:03:02.658Z,100166.23
2023-01-06T17:06:08.331Z,100177.92
2023-01-06T17:11:45.070Z,100171.70
2023-01-06T17:14:51.588Z,100196.15
2023-01-06T17:17:58.542Z,100190.94
2023-01-06T17:21:04.823Z,100211.05
2023-01-06T17:24:33.491Z,100214.05
2023-01-06T17:30:15.960Z,100220.66
2023-01-06T17:33:25.252Z,100228.45
2023-01-06T17:38:57.369Z,100219.13
2023-01-06T17:42:03.611Z,100227.20
2023-01-06T17:47:40.298Z,100242.25
2023-01-06T17:56:36.309Z,100251.50
2023-01-06T17:59:41.889Z,100265.06
2023-01-06T18:08:26.717Z,100273.05
2023-01-06T18:16:45.627Z,100297.75
2023-01-06T18:19:51.505Z,100299.62
2023-01-06T18:22:57.076Z,100299.47
2023-01-06T18:26:03.406Z,100304.61
2023-01-06T18:31:36.667Z,100313.78
2023-01-06T18:37:09.692Z,100325.45
2023-01-06T18:42:52.767Z,100340.02
2023-01-06T18:45:59.576Z,100345.55
2023-01-06T18:49:05.095Z,100340.56
2023-01-06T18:52:10.446Z,100364.20
2023-01-06T18:55:16.386Z,100352.23
2023-01-06T18:58:34.260Z,100364.48
2023-01-06T19:01:46.085Z,100403.97
2023-01-06T19:07:35.414Z,100378.82
2023-01-06T19:10:42.071Z,100377.05
2023-01-06T19:13:29.105Z,100374.94
2023-01-06T19:16:52.014Z,100385.92
2023-01-06T19:22:40.506Z,100407.19
2023-01-06T19:25:55.001Z,100413.20
2023-01-06T19:28:47.740Z,100425.34
2023-01-06T19:34:24.435Z,100431.23
2023-01-06T19:37:33.261Z,100443.33
2023-01-06T19:40:43.321Z,100464.81
2023-01-06T19:43:50.457Z,100464.47
2023-01-06T19:47:01.951Z,100468.59
2023-01-06T19:52:47.312Z,100493.64
2023-01-06T19:55:52.570Z,100495.06
2023-01-06T19:58:58.984Z,100503.44
2023-01-06T20:02:13.499Z,100503.06
2023-01-06T20:07:55.568Z,100517.16
2023-01-06T20:11:01.820Z,100512.42
2023-01-06T20:14:07.660Z,100515.06
2023-01-06T20:17:13.686Z,100510.53
2023-01-06T20:20:20.533Z,100520.22
2023-01-06T20:23:27.670Z,100531.54
2023-01-06T20:26:33.233Z,100531.67
2023-01-06T20:32:05.703Z,100535.06
2023-01-06T20:37:39.588Z,100548.48
2023-01-06T20:43:13.819Z,100570.62
2023-01-06T20:46:21.003Z,100569.28
2023-01-06T20:51:52.548Z,100576.86
2023-01-06T20:57:24.585Z,100576.61
2023-01-06T21:00:30.199Z,100575.66
2023-01-06T21:06:01.461Z,100588.05
2023-01-06T21:09:07.540Z,100591.75
2023-01-06T21:12:12.733Z,100594.04
2023-01-06T21:15:21.869Z,100604.27
2023-01-06T21:18:27.950Z,100613.93
2023-01-06T21:21:33.356Z,100621.11
2023-01-06T21:24:39.238Z,100609.73
2023-01-06T21:27:45.572Z,100619.72
2023-01-06T21:30:51.263Z,100619.34
2023-01-06T21:36:25.547Z,100618.88
2023-01-06T21:42:15.637Z,100627.45
2023-01-06T21:45:23.961Z,100630.51
2023-01-06T21:48:31.470Z,100635.67
2023-01-06T21:51:37.359Z,100637.56
2023-01-06T21:57:10.236Z,100634.47
2023-01-06T22:00:16.700Z,100639.70
2023-01-06T22:05:49.159Z,100641.11
2023-01-06T22:11:20.259Z,100633.92
2023-01-06T22:16:54.728Z,100647.91
2023-01-06T22:22:28.499Z,100650.64
2023-01-06T22:28:00.264Z,100653.00
2023-01-06T22:33:35.765Z,100658.95
2023-01-06T22:39:07.511Z,100673.84
2023-01-06T22:44:41.065Z,100693.22
2023-01-06T22:47:47.702Z,100698.78
2023-01-06T22:53:19.743Z,100693.55
2023-01-06T22:58:54.931Z,100711.39
2023-01-06T23:04:25.957Z,100715.64
2023-01-06T23:07:30.984Z,100722.14
2023-01-06T23:13:03.301Z,100744.33
2023-01-06T23:18:36.798Z,100761.90
2023-01-06T23:21:46.005Z,100759.77
2023-01-06T23:24:52.282Z,100775.33
2023-01-06T23:27:59.018Z,100780.55
2023-01-06T23:31:05.212Z,100775.29
2023-01-06T23:34:13.243Z,100780.55
2023-01-06T23:37:19.098Z,100787.56
2023-01-06T23:40:25.975Z,100790.20
2023-01-06T23:45:57.058Z,100805.14
2023-01-06T23:49:02.552Z,100808.65
2023-01-06T23:54:34.000Z,100823.12
